sensor_id;sensor_type;location;lat;lon;timestamp;P1;durP1;ratioP1;P2;durP2;ratioP2
39822;SDS011;25499;53.958;10.970;2023-02-23T07:14:11;21.85;;;6.55;;
39822;SDS011;25499;53.958;10.970;2023-02-23T07:16:37;19.30;;;6.45;;
39822;SDS011;25499;53.958;10.970;2023-02-23T07:19:04;16.42;;;5.90;;
39822;SDS011;25499;53.958;10.970;2023-02-23T07:21:30;18.73;;;6.65;;
39822;SDS011;25499;53.958;10.970;2023-02-23T07:23:56;23.92;;;7.07;;
39822;SDS011;25499;53.958;10.970;2023-02-23T07:26:22;22.35;;;7.60;;
39822;SDS011;25499;53.958;10.970;2023-02-23T07:28:47;27.20;;;8.13;;
39822;SDS011;25499;53.958;10.970;2023-02-23T07:31:13;23.27;;;7.50;;
39822;SDS011;25499;53.958;10.970;2023-02-23T07:33:39;27.73;;;8.07;;
39822;SDS011;25499;53.958;10.970;2023-02-23T07:36:04;20.10;;;7.53;;
39822;SDS011;25499;53.958;10.970;2023-02-23T07:38:30;32.25;;;8.05;;
39822;SDS011;25499;53.958;10.970;2023-02-23T07:40:55;27.58;;;8.35;;
39822;SDS011;25499;53.958;10.970;2023-02-23T07:43:20;30.20;;;8.15;;
39822;SDS011;25499;53.958;10.970;2023-02-23T07:45:47;32.30;;;8.73;;
39822;SDS011;25499;53.958;10.970;2023-02-23T07:48:13;33.17;;;9.35;;
39822;SDS011;25499;53.958;10.970;2023-02-23T07:50:39;36.92;;;9.85;;
39822;SDS011;25499;53.958;10.970;2023-02-23T07:53:05;42.88;;;10.35;;
39822;SDS011;25499;53.958;10.970;2023-02-23T07:55:31;40.38;;;10.55;;
39822;SDS011;25499;53.958;10.970;2023-02-23T07:57:56;41.50;;;10.70;;
39822;SDS011;25499;53.958;10.970;2023-02-23T08:00:23;51.50;;;11.73;;
39822;SDS011;25499;53.958;10.970;2023-02-23T08:02:49;55.03;;;11.48;;
39822;SDS011;25499;53.958;10.970;2023-02-23T08:05:17;46.20;;;11.55;;
39822;SDS011;25499;53.958;10.970;2023-02-23T08:07:44;43.35;;;11.13;;
39822;SDS011;25499;53.958;10.970;2023-02-23T08:10:10;47.50;;;11.55;;
39822;SDS011;25499;53.958;10.970;2023-02-23T08:12:36;55.85;;;13.60;;
39822;SDS011;25499;53.958;10.970;2023-02-23T08:15:02;54.95;;;12.75;;
39822;SDS011;25499;53.958;10.970;2023-02-23T08:17:32;48.15;;;12.00;;
39822;SDS011;25499;53.958;10.970;2023-02-23T08:20:03;54.20;;;13.10;;
39822;SDS011;25499;53.958;10.970;2023-02-23T08:22:29;48.30;;;12.27;;
39822;SDS011;25499;53.958;10.970;2023-02-23T08:24:55;61.17;;;13.45;;
39822;SDS011;25499;53.958;10.970;2023-02-23T08:27:20;56.70;;;13.73;;
39822;SDS011;25499;53.958;10.970;2023-02-23T08:29:46;49.42;;;13.20;;
39822;SDS011;25499;53.958;10.970;2023-02-23T08:32:11;57.95;;;14.05;;
39822;SDS011;25499;53.958;10.970;2023-02-23T08:34:38;60.47;;;14.65;;
39822;SDS011;25499;53.958;10.970;2023-02-23T08:37:04;51.33;;;13.75;;
39822;SDS011;25499;53.958;10.970;2023-02-23T08:39:29;66.70;;;15.25;;
39822;SDS011;25499;53.958;10.970;2023-02-23T08:41:55;68.90;;;15.57;;
39822;SDS011;25499;53.958;10.970;2023-02-23T08:44:21;58.38;;;15.30;;
39822;SDS011;25499;53.958;10.970;2023-02-23T08:46:46;67.10;;;16.42;;
39822;SDS011;25499;53.958;10.970;2023-02-23T08:49:12;59.25;;;15.35;;
39822;SDS011;25499;53.958;10.970;2023-02-23T08:51:37;66.68;;;17.05;;
39822;SDS011;25499;53.958;10.970;2023-02-23T08:54:02;68.13;;;16.80;;
39822;SDS011;25499;53.958;10.970;2023-02-23T08:56:28;82.47;;;17.33;;
39822;SDS011;25499;53.958;10.970;2023-02-23T08:58:54;75.38;;;16.95;;
39822;SDS011;25499;53.958;10.970;2023-02-23T09:01:20;87.13;;;19.50;;
39822;SDS011;25499;53.958;10.970;2023-02-23T09:03:46;73.13;;;18.27;;
39822;SDS011;25499;53.958;10.970;2023-02-23T09:06:13;83.95;;;18.80;;
39822;SDS011;25499;53.958;10.970;2023-02-23T09:08:41;78.90;;;19.83;;
39822;SDS011;25499;53.958;10.970;2023-02-23T09:11:07;99.55;;;20.98;;
39822;SDS011;25499;53.958;10.970;2023-02-23T09:13:33;74.07;;;20.20;;
39822;SDS011;25499;53.958;10.970;2023-02-23T09:16:00;83.80;;;20.60;;
39822;SDS011;25499;53.958;10.970;2023-02-23T09:18:29;89.82;;;21.25;;
39822;SDS011;25499;53.958;10.970;2023-02-23T09:20:56;86.78;;;23.60;;
39822;SDS011;25499;53.958;10.970;2023-02-23T09:23:25;88.20;;;21.33;;
39822;SDS011;25499;53.958;10.970;2023-02-23T09:25:52;93.75;;;23.08;;
39822;SDS011;25499;53.958;10.970;2023-02-23T09:28:18;96.45;;;22.70;;
39822;SDS011;25499;53.958;10.970;2023-02-23T09:30:45;87.13;;;22.25;;
39822;SDS011;25499;53.958;10.970;2023-02-23T09:33:11;98.60;;;23.10;;
39822;SDS011;25499;53.958;10.970;2023-02-23T09:35:37;92.25;;;22.42;;
39822;SDS011;25499;53.958;10.970;2023-02-23T09:38:03;88.95;;;23.45;;
39822;SDS011;25499;53.958;10.970;2023-02-23T09:40:34;89.22;;;23.15;;
39822;SDS011;25499;53.958;10.970;2023-02-23T09:43:19;103.47;;;25.75;;
39822;SDS011;25499;53.958;10.970;2023-02-23T09:46:37;85.38;;;25.20;;
39822;SDS011;25499;53.958;10.970;2023-02-23T09:49:00;94.60;;;25.83;;
39822;SDS011;25499;53.958;10.970;2023-02-23T09:51:27;90.30;;;25.52;;
39822;SDS011;25499;53.958;10.970;2023-02-23T09:53:57;82.68;;;24.35;;
39822;SDS011;25499;53.958;10.970;2023-02-23T09:56:30;88.78;;;26.35;;
39822;SDS011;25499;53.958;10.970;2023-02-23T09:59:00;87.80;;;26.55;;
39822;SDS011;25499;53.958;10.970;2023-02-23T10:04:22;85.13;;;26.35;;
39822;SDS011;25499;53.958;10.970;2023-02-23T10:21:08;87.40;;;25.88;;
39822;SDS011;25499;53.958;10.970;2023-02-23T10:23:44;89.78;;;25.48;;
39822;SDS011;25499;53.958;10.970;2023-02-23T10:26:20;88.93;;;24.73;;
39822;SDS011;25499;53.958;10.970;2023-02-23T10:28:48;79.38;;;25.48;;
39822;SDS011;25499;53.958;10.970;2023-02-23T10:31:23;85.80;;;25.63;;
39822;SDS011;25499;53.958;10.970;2023-02-23T10:33:54;89.53;;;25.05;;
39822;SDS011;25499;53.958;10.970;2023-02-23T10:39:01;89.60;;;26.55;;
39822;SDS011;25499;53.958;10.970;2023-02-23T10:41:32;88.22;;;25.05;;
39822;SDS011;25499;53.958;10.970;2023-02-23T10:43:59;88.82;;;24.60;;
39822;SDS011;25499;53.958;10.970;2023-02-23T10:46:26;84.22;;;26.13;;
39822;SDS011;25499;53.958;10.970;2023-02-23T10:48:59;88.32;;;26.73;;
39822;SDS011;25499;53.958;10.970;2023-02-23T10:51:26;90.07;;;26.52;;
39822;SDS011;25499;53.958;10.970;2023-02-23T10:53:56;92.38;;;25.33;;
39822;SDS011;25499;53.958;10.970;2023-02-23T10:56:22;92.80;;;24.95;;
39822;SDS011;25499;53.958;10.970;2023-02-23T10:58:51;81.90;;;23.92;;
39822;SDS011;25499;53.958;10.970;2023-02-23T11:04:48;85.15;;;25.80;;
39822;SDS011;25499;53.958;10.970;2023-02-23T11:07:07;93.60;;;26.70;;
39822;SDS011;25499;53.958;10.970;2023-02-23T11:14:54;73.20;;;24.45;;
39822;SDS011;25499;53.958;10.970;2023-02-23T11:20:29;81.72;;;24.73;;
39822;SDS011;25499;53.958;10.970;2023-02-23T11:22:55;74.20;;;24.45;;
39822;SDS011;25499;53.958;10.970;2023-02-23T11:25:28;67.20;;;24.77;;
39822;SDS011;25499;53.958;10.970;2023-02-23T11:27:55;63.92;;;23.52;;
39822;SDS011;25499;53.958;10.970;2023-02-23T11:30:23;60.53;;;23.33;;
39822;SDS011;25499;53.958;10.970;2023-02-23T11:32:57;65.78;;;23.42;;
39822;SDS011;25499;53.958;10.970;2023-02-23T11:35:33;62.13;;;25.70;;
39822;SDS011;25499;53.958;10.970;2023-02-23T11:37:59;64.00;;;24.95;;
39822;SDS011;25499;53.958;10.970;2023-02-23T11:40:57;66.13;;;25.67;;
39822;SDS011;25499;53.958;10.970;2023-02-23T11:43:27;73.50;;;27.77;;
39822;SDS011;25499;53.958;10.970;2023-02-23T11:45:55;75.30;;;29.50;;
39822;SDS011;25499;53.958;10.970;2023-02-23T11:48:33;91.90;;;32.55;;
39822;SDS011;25499;53.958;10.970;2023-02-23T11:51:03;94.60;;;33.90;;
39822;SDS011;25499;53.958;10.970;2023-02-23T11:53:47;97.53;;;33.83;;
39822;SDS011;25499;53.958;10.970;2023-02-23T11:56:13;99.82;;;34.35;;
39822;SDS011;25499;53.958;10.970;2023-02-23T11:58:54;104.68;;;35.20;;
39822;SDS011;25499;53.958;10.970;2023-02-23T12:04:23;108.47;;;36.03;;
39822;SDS011;25499;53.958;10.970;2023-02-23T12:07:16;115.38;;;36.17;;
39822;SDS011;25499;53.958;10.970;2023-02-23T12:10:20;113.55;;;36.38;;
39822;SDS011;25499;53.958;10.970;2023-02-23T12:18:26;109.13;;;36.40;;
39822;SDS011;25499;53.958;10.970;2023-02-23T12:20:53;112.63;;;36.28;;
39822;SDS011;25499;53.958;10.970;2023-02-23T12:23:23;120.15;;;37.47;;
39822;SDS011;25499;53.958;10.970;2023-02-23T12:26:02;111.55;;;37.85;;
39822;SDS011;25499;53.958;10.970;2023-02-23T12:33:57;113.10;;;37.55;;
39822;SDS011;25499;53.958;10.970;2023-02-23T12:42:05;115.57;;;36.90;;
39822;SDS011;25499;53.958;10.970;2023-02-23T12:47:20;114.82;;;36.70;;
39822;SDS011;25499;53.958;10.970;2023-02-23T12:49:57;117.88;;;37.58;;
39822;SDS011;25499;53.958;10.970;2023-02-23T12:52:46;124.65;;;38.65;;
39822;SDS011;25499;53.958;10.970;2023-02-23T12:55:34;115.88;;;37.33;;
39822;SDS011;25499;53.958;10.970;2023-02-23T13:12:23;120.30;;;36.40;;
39822;SDS011;25499;53.958;10.970;2023-02-23T13:18:21;113.70;;;35.75;;
39822;SDS011;25499;53.958;10.970;2023-02-23T13:32:07;102.05;;;32.92;;
39822;SDS011;25499;53.958;10.970;2023-02-23T13:37:29;94.05;;;30.85;;
39822;SDS011;25499;53.958;10.970;2023-02-23T13:40:14;99.18;;;32.00;;
39822;SDS011;25499;53.958;10.970;2023-02-23T13:42:51;93.75;;;31.15;;
39822;SDS011;25499;53.958;10.970;2023-02-23T13:56:23;93.78;;;31.63;;
39822;SDS011;25499;53.958;10.970;2023-02-23T13:58:58;92.10;;;30.45;;
39822;SDS011;25499;53.958;10.970;2023-02-23T14:01:28;91.00;;;29.00;;
39822;SDS011;25499;53.958;10.970;2023-02-23T14:04:03;95.90;;;30.77;;
39822;SDS011;25499;53.958;10.970;2023-02-23T14:06:36;88.93;;;29.58;;
39822;SDS011;25499;53.958;10.970;2023-02-23T14:09:12;84.45;;;29.55;;
39822;SDS011;25499;53.958;10.970;2023-02-23T14:11:56;88.40;;;29.65;;
39822;SDS011;25499;53.958;10.970;2023-02-23T14:14:41;81.55;;;28.15;;
39822;SDS011;25499;53.958;10.970;2023-02-23T14:19:36;76.43;;;27.27;;
39822;SDS011;25499;53.958;10.970;2023-02-23T14:22:11;83.32;;;28.63;;
39822;SDS011;25499;53.958;10.970;2023-02-23T14:24:41;79.40;;;27.60;;
39822;SDS011;25499;53.958;10.970;2023-02-23T14:29:39;72.97;;;25.98;;
39822;SDS011;25499;53.958;10.970;2023-02-23T14:34:50;54.88;;;20.38;;
39822;SDS011;25499;53.958;10.970;2023-02-23T14:37:28;51.28;;;20.42;;
39822;SDS011;25499;53.958;10.970;2023-02-23T14:39:55;52.30;;;18.90;;
39822;SDS011;25499;53.958;10.970;2023-02-23T14:42:28;45.58;;;18.75;;
39822;SDS011;25499;53.958;10.970;2023-02-23T14:44:54;42.10;;;18.52;;
39822;SDS011;25499;53.958;10.970;2023-02-23T14:47:24;47.17;;;17.52;;
39822;SDS011;25499;53.958;10.970;2023-02-23T14:50:00;46.40;;;18.42;;
39822;SDS011;25499;53.958;10.970;2023-02-23T14:52:33;49.97;;;20.17;;
39822;SDS011;25499;53.958;10.970;2023-02-23T14:57:36;44.80;;;18.60;;
39822;SDS011;25499;53.958;10.970;2023-02-23T15:00:40;48.70;;;19.08;;
39822;SDS011;25499;53.958;10.970;2023-02-23T15:02:59;48.40;;;19.77;;
39822;SDS011;25499;53.958;10.970;2023-02-23T15:05:36;46.47;;;19.33;;
39822;SDS011;25499;53.958;10.970;2023-02-23T15:08:07;41.50;;;18.30;;
39822;SDS011;25499;53.958;10.970;2023-02-23T15:10:38;43.28;;;17.95;;
39822;SDS011;25499;53.958;10.970;2023-02-23T15:13:08;46.67;;;18.92;;
39822;SDS011;25499;53.958;10.970;2023-02-23T15:15:36;45.95;;;18.55;;
39822;SDS011;25499;53.958;10.970;2023-02-23T15:18:09;46.45;;;19.48;;
39822;SDS011;25499;53.958;10.970;2023-02-23T15:20:46;49.83;;;19.58;;
39822;SDS011;25499;53.958;10.970;2023-02-23T15:23:12;46.80;;;18.48;;
39822;SDS011;25499;53.958;10.970;2023-02-23T15:25:43;43.88;;;19.20;;
39822;SDS011;25499;53.958;10.970;2023-02-23T15:28:28;43.30;;;17.95;;
39822;SDS011;25499;53.958;10.970;2023-02-23T15:30:58;42.65;;;18.17;;
39822;SDS011;25499;53.958;10.970;2023-02-23T15:33:25;48.22;;;17.73;;
39822;SDS011;25499;53.958;10.970;2023-02-23T15:36:18;41.95;;;18.08;;
39822;SDS011;25499;53.958;10.970;2023-02-23T15:38:44;41.47;;;17.85;;
39822;SDS011;25499;53.958;10.970;2023-02-23T15:41:16;47.75;;;18.55;;
39822;SDS011;25499;53.958;10.970;2023-02-23T15:43:44;46.90;;;18.40;;
39822;SDS011;25499;53.958;10.970;2023-02-23T15:46:11;45.58;;;16.92;;
39822;SDS011;25499;53.958;10.970;2023-02-23T15:48:50;38.97;;;17.27;;
39822;SDS011;25499;53.958;10.970;2023-02-23T15:51:25;45.38;;;17.50;;
39822;SDS011;25499;53.958;10.970;2023-02-23T15:54:15;44.03;;;16.45;;
39822;SDS011;25499;53.958;10.970;2023-02-23T15:56:47;44.80;;;17.23;;
39822;SDS011;25499;53.958;10.970;2023-02-23T15:59:28;41.75;;;16.15;;
39822;SDS011;25499;53.958;10.970;2023-02-23T16:01:59;41.13;;;14.73;;
39822;SDS011;25499;53.958;10.970;2023-02-23T16:04:36;42.85;;;16.52;;
39822;SDS011;25499;53.958;10.970;2023-02-23T16:09:45;40.63;;;15.73;;
39822;SDS011;25499;53.958;10.970;2023-02-23T16:12:20;44.85;;;16.33;;
39822;SDS011;25499;53.958;10.970;2023-02-23T16:20:16;38.88;;;15.27;;
39822;SDS011;25499;53.958;10.970;2023-02-23T16:22:45;34.75;;;14.73;;
39822;SDS011;25499;53.958;10.970;2023-02-23T16:25:12;38.95;;;14.95;;
39822;SDS011;25499;53.958;10.970;2023-02-23T16:27:41;35.97;;;14.82;;
39822;SDS011;25499;53.958;10.970;2023-02-23T16:30:22;38.92;;;15.75;;
39822;SDS011;25499;53.958;10.970;2023-02-23T16:33:05;41.08;;;15.27;;
39822;SDS011;25499;53.958;10.970;2023-02-23T16:35:47;34.33;;;13.32;;
39822;SDS011;25499;53.958;10.970;2023-02-23T16:40:47;36.63;;;13.23;;
39822;SDS011;25499;53.958;10.970;2023-02-23T16:43:13;35.33;;;14.02;;
39822;SDS011;25499;53.958;10.970;2023-02-23T16:45:40;35.85;;;13.40;;
39822;SDS011;25499;53.958;10.970;2023-02-23T16:48:16;39.03;;;13.40;;
39822;SDS011;25499;53.958;10.970;2023-02-23T16:50:42;34.08;;;13.90;;
39822;SDS011;25499;53.958;10.970;2023-02-23T16:53:09;37.72;;;12.88;;
39822;SDS011;25499;53.958;10.970;2023-02-23T16:55:58;35.65;;;13.75;;
39822;SDS011;25499;53.958;10.970;2023-02-23T16:58:26;40.40;;;13.48;;
39822;SDS011;25499;53.958;10.970;2023-02-23T17:00:54;37.60;;;15.13;;
39822;SDS011;25499;53.958;10.970;2023-02-23T17:03:22;40.83;;;14.82;;
39822;SDS011;25499;53.958;10.970;2023-02-23T17:05:49;40.33;;;15.07;;
39822;SDS011;25499;53.958;10.970;2023-02-23T17:08:16;37.20;;;13.45;;
39822;SDS011;25499;53.958;10.970;2023-02-23T17:10:42;38.30;;;13.52;;
39822;SDS011;25499;53.958;10.970;2023-02-23T17:13:23;38.92;;;13.98;;
39822;SDS011;25499;53.958;10.970;2023-02-23T17:15:50;33.17;;;12.95;;
39822;SDS011;25499;53.958;10.970;2023-02-23T17:18:18;38.95;;;14.45;;
39822;SDS011;25499;53.958;10.970;2023-02-23T17:20:49;29.75;;;11.10;;
39822;SDS011;25499;53.958;10.970;2023-02-23T17:23:16;23.48;;;8.32;;
39822;SDS011;25499;53.958;10.970;2023-02-23T17:25:41;30.73;;;9.45;;
39822;SDS011;25499;53.958;10.970;2023-02-23T17:28:07;26.70;;;7.88;;
39822;SDS011;25499;53.958;10.970;2023-02-23T17:30:33;20.45;;;6.95;;
39822;SDS011;25499;53.958;10.970;2023-02-23T17:33:00;29.92;;;7.75;;
39822;SDS011;25499;53.958;10.970;2023-02-23T17:35:26;20.75;;;6.40;;
39822;SDS011;25499;53.958;10.970;2023-02-23T17:37:53;25.02;;;7.10;;
39822;SDS011;25499;53.958;10.970;2023-02-23T17:40:22;21.42;;;6.18;;
39822;SDS011;25499;53.958;10.970;2023-02-23T17:43:00;17.33;;;5.47;;
39822;SDS011;25499;53.958;10.970;2023-02-23T17:45:29;20.45;;;5.22;;
39822;SDS011;25499;53.958;10.970;2023-02-23T17:47:56;22.92;;;5.13;;
39822;SDS011;25499;53.958;10.970;2023-02-23T17:50:22;21.58;;;4.15;;
39822;SDS011;25499;53.958;10.970;2023-02-23T17:52:51;24.52;;;4.70;;
39822;SDS011;25499;53.958;10.970;2023-02-23T17:55:17;19.92;;;3.88;;
39822;SDS011;25499;53.958;10.970;2023-02-23T17:57:44;25.98;;;3.80;;
39822;SDS011;25499;53.958;10.970;2023-02-23T18:00:10;16.92;;;3.13;;
39822;SDS011;25499;53.958;10.970;2023-02-23T18:02:39;21.40;;;3.33;;
39822;SDS011;25499;53.958;10.970;2023-02-23T18:05:06;13.77;;;2.38;;
39822;SDS011;25499;53.958;10.970;2023-02-23T18:07:32;13.98;;;2.17;;
39822;SDS011;25499;53.958;10.970;2023-02-23T18:09:57;17.20;;;1.90;;
39822;SDS011;25499;53.958;10.970;2023-02-23T18:12:23;14.43;;;2.63;;
39822;SDS011;25499;53.958;10.970;2023-02-23T18:14:48;23.10;;;2.60;;
39822;SDS011;25499;53.958;10.970;2023-02-23T18:17:14;15.00;;;1.85;;
39822;SDS011;25499;53.958;10.970;2023-02-23T18:19:40;18.83;;;2.17;;
39822;SDS011;25499;53.958;10.970;2023-02-23T18:22:06;17.20;;;2.60;;
39822;SDS011;25499;53.958;10.970;2023-02-23T18:24:32;13.55;;;2.10;;
39822;SDS011;25499;53.958;10.970;2023-02-23T18:26:58;18.95;;;2.38;;
39822;SDS011;25499;53.958;10.970;2023-02-23T18:29:30;12.38;;;2.35;;
39822;SDS011;25499;53.958;10.970;2023-02-23T18:31:58;14.75;;;2.28;;
39822;SDS011;25499;53.958;10.970;2023-02-23T18:34:25;9.90;;;2.08;;
39822;SDS011;25499;53.958;10.970;2023-02-23T18:36:52;15.15;;;2.10;;
39822;SDS011;25499;53.958;10.970;2023-02-23T18:39:18;21.08;;;2.60;;
39822;SDS011;25499;53.958;10.970;2023-02-23T18:41:44;17.92;;;1.98;;
39822;SDS011;25499;53.958;10.970;2023-02-23T18:44:10;16.05;;;2.50;;
39822;SDS011;25499;53.958;10.970;2023-02-23T18:46:38;15.93;;;2.40;;
39822;SDS011;25499;53.958;10.970;2023-02-23T18:49:04;18.67;;;2.70;;
39822;SDS011;25499;53.958;10.970;2023-02-23T18:51:30;14.55;;;2.03;;
39822;SDS011;25499;53.958;10.970;2023-02-23T18:53:57;14.80;;;1.98;;
39822;SDS011;25499;53.958;10.970;2023-02-23T18:56:24;13.13;;;2.15;;
39822;SDS011;25499;53.958;10.970;2023-02-23T18:58:53;17.15;;;2.08;;
39822;SDS011;25499;53.958;10.970;2023-02-23T19:01:24;16.80;;;2.80;;
39822;SDS011;25499;53.958;10.970;2023-02-23T19:03:52;14.68;;;2.53;;
39822;SDS011;25499;53.958;10.970;2023-02-23T19:06:20;12.45;;;2.17;;
39822;SDS011;25499;53.958;10.970;2023-02-23T19:08:47;18.95;;;2.05;;
39822;SDS011;25499;53.958;10.970;2023-02-23T19:11:22;18.85;;;2.13;;
39822;SDS011;25499;53.958;10.970;2023-02-23T19:13:52;17.92;;;2.20;;
39822;SDS011;25499;53.958;10.970;2023-02-23T19:16:19;13.88;;;2.03;;
39822;SDS011;25499;53.958;10.970;2023-02-23T19:18:47;19.63;;;2.38;;
39822;SDS011;25499;53.958;10.970;2023-02-23T19:21:13;20.60;;;2.22;;
39822;SDS011;25499;53.958;10.970;2023-02-23T19:23:39;15.82;;;2.30;;
39822;SDS011;25499;53.958;10.970;2023-02-23T19:26:05;16.63;;;3.40;;
39822;SDS011;25499;53.958;10.970;2023-02-23T19:28:30;17.77;;;2.25;;
39822;SDS011;25499;53.958;10.970;2023-02-23T19:31:15;20.67;;;3.20;;
39822;SDS011;25499;53.958;10.970;2023-02-23T19:33:44;14.27;;;2.13;;
39822;SDS011;25499;53.958;10.970;2023-02-23T19:36:12;19.02;;;2.10;;
39822;SDS011;25499;53.958;10.970;2023-02-23T19:38:39;19.10;;;2.20;;
39822;SDS011;25499;53.958;10.970;2023-02-23T19:41:10;18.23;;;2.22;;
39822;SDS011;25499;53.958;10.970;2023-02-23T19:43:40;24.83;;;2.30;;
39822;SDS011;25499;53.958;10.970;2023-02-23T19:46:07;13.60;;;2.00;;
39822;SDS011;25499;53.958;10.970;2023-02-23T19:48:35;14.52;;;2.67;;
39822;SDS011;25499;53.958;10.970;2023-02-23T19:51:01;16.45;;;2.17;;
39822;SDS011;25499;53.958;10.970;2023-02-23T19:53:27;16.95;;;2.28;;
39822;SDS011;25499;53.958;10.970;2023-02-23T19:55:59;14.13;;;2.03;;
39822;SDS011;25499;53.958;10.970;2023-02-23T19:58:26;16.00;;;2.30;;
39822;SDS011;25499;53.958;10.970;2023-02-23T20:00:52;14.35;;;2.88;;
39822;SDS011;25499;53.958;10.970;2023-02-23T20:03:22;20.10;;;2.70;;
39822;SDS011;25499;53.958;10.970;2023-02-23T20:05:53;14.30;;;1.83;;
39822;SDS011;25499;53.958;10.970;2023-02-23T20:08:22;15.13;;;2.20;;
39822;SDS011;25499;53.958;10.970;2023-02-23T20:10:48;15.02;;;1.83;;
39822;SDS011;25499;53.958;10.970;2023-02-23T20:13:15;13.02;;;2.25;;
39822;SDS011;25499;53.958;10.970;2023-02-23T20:15:42;21.60;;;2.47;;
39822;SDS011;25499;53.958;10.970;2023-02-23T20:18:07;28.30;;;3.00;;
39822;SDS011;25499;53.958;10.970;2023-02-23T20:20:34;15.57;;;2.63;;
39822;SDS011;25499;53.958;10.970;2023-02-23T20:22:59;14.73;;;2.20;;
39822;SDS011;25499;53.958;10.970;2023-02-23T20:25:25;20.33;;;2.25;;
39822;SDS011;25499;53.958;10.970;2023-02-23T20:27:51;22.88;;;2.50;;
39822;SDS011;25499;53.958;10.970;2023-02-23T20:30:19;14.32;;;2.05;;
39822;SDS011;25499;53.958;10.970;2023-02-23T20:32:45;14.02;;;1.98;;
39822;SDS011;25499;53.958;10.970;2023-02-23T20:35:15;15.10;;;2.10;;
39822;SDS011;25499;53.958;10.970;2023-02-23T20:37:42;15.32;;;2.03;;
39822;SDS011;25499;53.958;10.970;2023-02-23T20:40:11;13.13;;;1.92;;
39822;SDS011;25499;53.958;10.970;2023-02-23T20:42:47;12.88;;;1.85;;
39822;SDS011;25499;53.958;10.970;2023-02-23T20:45:14;14.32;;;2.20;;
39822;SDS011;25499;53.958;10.970;2023-02-23T20:47:45;13.15;;;1.90;;
39822;SDS011;25499;53.958;10.970;2023-02-23T20:50:15;13.98;;;1.75;;
39822;SDS011;25499;53.958;10.970;2023-02-23T20:52:41;10.65;;;1.75;;
39822;SDS011;25499;53.958;10.970;2023-02-23T20:55:07;14.40;;;2.05;;
39822;SDS011;25499;53.958;10.970;2023-02-23T20:57:33;13.93;;;1.83;;
39822;SDS011;25499;53.958;10.970;2023-02-23T20:59:59;16.38;;;2.58;;
39822;SDS011;25499;53.958;10.970;2023-02-23T21:02:36;11.43;;;1.70;;
39822;SDS011;25499;53.958;10.970;2023-02-23T21:05:05;13.70;;;2.30;;
39822;SDS011;25499;53.958;10.970;2023-02-23T21:07:34;10.32;;;1.85;;
39822;SDS011;25499;53.958;10.970;2023-02-23T21:09:59;10.52;;;1.80;;
39822;SDS011;25499;53.958;10.970;2023-02-23T21:12:25;12.13;;;1.90;;
39822;SDS011;25499;53.958;10.970;2023-02-23T21:14:52;16.00;;;1.98;;
39822;SDS011;25499;53.958;10.970;2023-02-23T21:17:18;15.18;;;1.88;;
39822;SDS011;25499;53.958;10.970;2023-02-23T21:19:43;16.58;;;1.40;;
39822;SDS011;25499;53.958;10.970;2023-02-23T21:22:09;12.13;;;1.60;;
39822;SDS011;25499;53.958;10.970;2023-02-23T21:24:37;14.52;;;2.00;;
